Time;durP1;ratioP1;P1;durP2;ratioP2;P2;SDS_P1;SDS_P2;PMS_P1;PMS_P2;Temp;Humidity;BMP_temperature;BMP_pressure;BME280_temperature;BME280_humidity;BME280_pressure;Samples;Min_cycle;Max_cycle;Signal;HPM_P1;HPM_P2
2022/02/04 00:22:20;;;;;;;0.30;0.30;;;6.40;99.90;;;;;;5037163;28;20213;-68
2022/02/04 00:24:37;;;;;;;0.35;0.35;;;6.10;99.90;;;;;;5036925;28;20203;-68
2022/02/04 00:27:09;;;;;;;0.38;0.38;;;6.00;99.90;;;;;;5036867;28;20186;-68
2022/02/04 00:30:25;;;;;;;0.30;0.30;;;6.00;99.90;;;;;;5036778;28;20268;-68
2022/02/04 00:32:24;;;;;;;0.30;0.30;;;6.00;99.90;;;;;;5029629;28;20636;-68
2022/02/04 00:34:57;;;;;;;0.40;0.40;;;6.00;99.90;;;;;;5036603;28;20631;-68
2022/02/04 00:37:33;;;;;;;0.40;0.40;;;6.00;99.90;;;;;;5036808;28;20179;-68
2022/02/04 00:40:09;;;;;;;0.30;0.30;;;5.90;99.90;;;;;;5036598;28;20284;-68
2022/02/04 00:42:34;;;;;;;2.25;0.88;;;6.00;99.90;;;;;;5036746;28;20179;-68
2022/02/04 00:45:14;;;;;;;0.30;0.30;;;6.00;99.90;;;;;;5036570;28;20672;-68
2022/02/04 00:47:46;;;;;;;0.40;0.40;;;5.80;99.90;;;;;;5036829;28;20163;-68
2022/02/04 00:50:49;;;;;;;0.40;0.40;;;5.90;99.90;;;;;;5036377;28;20258;-68
2022/02/04 00:55:40;;;;;;;0.38;0.38;;;6.00;99.90;;;;;;5036651;28;20191;-68
2022/02/04 01:13:05;;;;;;;0.30;0.30;;;5.90;99.90;;;;;;5036324;28;20162;-69
2022/02/04 01:28:17;;;;;;;0.30;0.30;;;6.00;99.90;;;;;;5035881;28;20205;-68
2022/02/04 01:30:44;;;;;;;0.30;0.30;;;6.00;99.90;;;;;;5035860;28;20250;-68
2022/02/04 01:33:12;;;;;;;0.40;0.40;;;5.90;99.90;;;;;;5035767;28;20189;-68
2022/02/04 01:35:38;;;;;;;0.35;0.35;;;6.00;99.90;;;;;;5035702;28;20314;-69
2022/02/04 01:38:04;;;;;;;0.40;0.40;;;5.90;99.90;;;;;;5035700;28;20238;-68
2022/02/04 01:40:29;;;;;;;0.40;0.40;;;6.00;99.90;;;;;;5035441;28;20402;-69
2022/02/04 01:42:55;;;;;;;0.40;0.40;;;5.80;99.90;;;;;;5035612;28;20171;-68
2022/02/04 01:45:21;;;;;;;0.40;0.40;;;5.80;99.90;;;;;;5035444;28;20422;-69
2022/02/04 01:47:56;;;;;;;0.40;0.40;;;5.80;99.90;;;;;;5035643;28;20221;-68
2022/02/04 01:50:27;;;;;;;0.40;0.40;;;5.70;99.90;;;;;;5035461;28;20186;-68
2022/02/04 01:52:54;;;;;;;0.30;0.30;;;5.70;99.90;;;;;;5035634;28;20171;-68
2022/02/04 01:55:21;;;;;;;0.40;0.40;;;5.80;99.90;;;;;;5033927;28;20225;-68
2022/02/04 01:57:46;;;;;;;0.50;0.50;;;5.80;99.90;;;;;;5035275;28;20221;-68
2022/02/04 02:00:13;;;;;;;0.40;0.40;;;5.90;99.90;;;;;;5035227;28;20574;-69
2022/02/04 02:02:38;;;;;;;0.30;0.30;;;5.60;99.90;;;;;;5035189;28;20170;-67
2022/02/04 02:05:05;;;;;;;0.40;0.40;;;5.60;99.90;;;;;;5035027;28;20556;-68
2022/02/04 02:07:32;;;;;;;0.40;0.40;;;5.70;99.90;;;;;;5035282;28;20175;-68
2022/02/04 02:12:31;;;;;;;0.30;0.30;;;5.70;99.90;;;;;;5034997;28;20175;-68
2022/02/04 02:15:26;;;;;;;0.40;0.40;;;5.70;99.90;;;;;;5035120;28;20199;-69
2022/02/04 02:44:41;;;;;;;0.40;0.40;;;5.40;99.60;;;;;;5033502;28;20193;-68
2022/02/04 03:00:24;;;;;;;0.40;0.40;;;5.50;99.90;;;;;;5033157;28;20206;-69
2022/02/04 03:02:52;;;;;;;0.40;0.40;;;5.50;99.80;;;;;;5032057;28;20179;-68
2022/02/04 03:05:17;;;;;;;0.40;0.40;;;5.50;99.90;;;;;;5033246;28;20190;-68
2022/02/04 03:07:43;;;;;;;0.40;0.40;;;5.50;99.90;;;;;;5033389;28;20175;-69
2022/02/04 03:10:09;;;;;;;0.40;0.40;;;5.70;99.90;;;;;;5033056;28;20250;-68
2022/02/04 03:12:36;;;;;;;0.77;0.77;;;5.60;99.70;;;;;;5033154;28;20167;-68
2022/02/04 03:15:02;;;;;;;0.40;0.40;;;5.70;99.90;;;;;;5033095;28;20183;-68
2022/02/04 03:17:28;;;;;;;0.38;0.38;;;5.70;99.60;;;;;;5033132;28;20697;-68
2022/02/04 03:19:58;;;;;;;1.40;1.40;;;5.70;99.50;;;;;;5032687;28;20293;-69
2022/02/04 03:22:24;;;;;;;0.40;0.40;;;5.60;99.40;;;;;;5033062;28;20229;-68
2022/02/04 03:24:57;;;;;;;0.40;0.40;;;5.40;99.50;;;;;;5033024;28;20191;-69
2022/02/04 03:27:26;;;;;;;0.40;0.40;;;5.40;99.70;;;;;;5033135;28;20174;-68
2022/02/04 03:32:22;;;;;;;0.40;0.40;;;5.40;99.90;;;;;;5032978;28;20189;-68
2022/02/04 03:34:47;;;;;;;0.30;0.30;;;5.20;99.90;;;;;;4994204;28;1132804;-67
2022/02/04 03:37:13;;;;;;;0.30;0.30;;;5.20;99.90;;;;;;5033778;28;20536;-68
2022/02/04 03:39:39;;;;;;;0.40;0.40;;;5.20;99.90;;;;;;5033487;28;20202;-68
2022/02/04 03:42:05;;;;;;;0.30;0.30;;;5.40;99.90;;;;;;5033656;28;20178;-68
2022/02/04 03:44:32;;;;;;;0.40;0.40;;;5.10;99.90;;;;;;5033492;28;20190;-68
2022/02/04 03:46:59;;;;;;;0.40;0.40;;;4.90;99.90;;;;;;5033060;28;20163;-68
2022/02/04 03:49:24;;;;;;;0.35;0.35;;;5.00;99.90;;;;;;5032878;28;20211;-69
2022/02/04 03:51:50;;;;;;;0.30;0.30;;;5.20;99.90;;;;;;5033642;28;20210;-69
2022/02/04 03:54:16;;;;;;;0.40;0.40;;;5.40;99.90;;;;;;5033375;28;20206;-69
2022/02/04 03:56:41;;;;;;;0.40;0.40;;;5.50;99.80;;;;;;5033346;28;20611;-68
2022/02/04 03:59:07;;;;;;;1.10;1.00;;;5.50;99.50;;;;;;5033208;28;20969;-69
2022/02/04 04:01:33;;;;;;;0.40;0.40;;;5.60;99.50;;;;;;5033501;28;20179;-68
2022/02/04 04:03:59;;;;;;;0.30;0.30;;;5.60;99.30;;;;;;5032176;28;20206;-68
2022/02/04 04:06:24;;;;;;;0.33;0.33;;;5.60;99.10;;;;;;5033332;28;20178;-69
2022/02/04 04:08:53;;;;;;;0.40;0.40;;;5.70;99.00;;;;;;5033093;28;20417;-68
2022/02/04 04:11:19;;;;;;;0.30;0.30;;;5.60;98.80;;;;;;5033360;28;20528;-68
2022/02/04 04:13:45;;;;;;;0.40;0.40;;;5.40;98.90;;;;;;5033311;28;20205;-68
2022/02/04 04:16:11;;;;;;;0.30;0.30;;;5.40;99.00;;;;;;5033156;28;20174;-69
2022/02/04 04:18:36;;;;;;;0.30;0.30;;;5.50;99.30;;;;;;5033202;28;20453;-68
2022/02/04 04:21:02;;;;;;;0.37;0.37;;;5.50;99.10;;;;;;5033161;28;20481;-68
2022/02/04 04:23:28;;;;;;;0.38;0.38;;;5.50;98.80;;;;;;5033075;28;20167;-68
2022/02/04 04:25:54;;;;;;;0.30;0.30;;;5.40;98.80;;;;;;5033064;28;20179;-68
2022/02/04 04:28:20;;;;;;;0.40;0.40;;;5.50;98.80;;;;;;5033030;28;20174;-68
2022/02/04 04:30:46;;;;;;;0.30;0.30;;;5.50;98.70;;;;;;5033212;28;20704;-68
2022/02/04 04:33:11;;;;;;;0.30;0.30;;;5.60;98.70;;;;;;5032883;28;20187;-68
2022/02/04 04:35:38;;;;;;;0.40;0.40;;;5.70;98.60;;;;;;5032984;28;20199;-69
2022/02/04 04:38:14;;;;;;;0.30;0.30;;;5.60;98.60;;;;;;5031674;28;20987;-68
2022/02/04 04:40:58;;;;;;;0.40;0.40;;;5.70;98.70;;;;;;5033171;28;20192;-69
2022/02/04 04:43:42;;;;;;;0.40;0.40;;;5.80;98.60;;;;;;5033042;28;20170;-68
2022/02/04 05:27:57;;;;;;;0.40;0.40;;;5.80;99.40;;;;;;5035901;28;20627;-68
2022/02/04 05:29:45;;;;;;;0.30;0.30;;;5.80;99.60;;;;;;5029959;28;20277;-68
2022/02/04 05:32:10;;;;;;;0.40;0.40;;;5.90;99.70;;;;;;5034613;28;20282;-68
2022/02/04 05:34:36;;;;;;;0.40;0.40;;;6.00;99.60;;;;;;5035599;28;20198;-68
2022/02/04 05:37:05;;;;;;;0.40;0.40;;;5.90;99.60;;;;;;5035827;28;20167;-68
2022/02/04 05:39:52;;;;;;;0.40;0.40;;;5.80;99.60;;;;;;5035433;28;20601;-68
2022/02/04 05:42:22;;;;;;;0.30;0.30;;;5.90;99.80;;;;;;5035677;28;20175;-68
2022/02/04 05:44:56;;;;;;;0.40;0.40;;;5.90;99.60;;;;;;5035689;28;20198;-68
2022/02/04 05:47:21;;;;;;;0.40;0.40;;;5.50;99.70;;;;;;5035720;28;20175;-68
2022/02/04 05:50:04;;;;;;;1.70;1.60;;;5.40;99.90;;;;;;5035219;28;20262;-68
2022/02/04 05:52:36;;;;;;;0.30;0.30;;;4.90;99.90;;;;;;5035547;28;20582;-68
2022/02/04 05:55:52;;;;;;;0.40;0.40;;;4.90;99.90;;;;;;5035196;28;20226;-68
2022/02/04 05:58:16;;;;;;;0.30;0.30;;;4.80;99.90;;;;;;5029542;28;20594;-68
2022/02/04 06:00:56;;;;;;;0.40;0.40;;;4.80;99.90;;;;;;5035172;28;20155;-69
2022/02/04 06:24:12;;;;;;;0.40;0.40;;;5.60;99.90;;;;;;5034817;28;20202;-68
2022/02/04 06:26:38;;;;;;;0.40;0.40;;;5.50;99.90;;;;;;5034706;28;20175;-68
2022/02/04 06:29:04;;;;;;;0.30;0.30;;;5.50;99.90;;;;;;5034603;28;20544;-68
2022/02/04 06:31:30;;;;;;;0.30;0.30;;;5.40;99.90;;;;;;5034868;28;20175;-68
2022/02/04 06:33:56;;;;;;;0.30;0.30;;;5.50;99.90;;;;;;5033125;28;20460;-68
2022/02/04 06:36:21;;;;;;;0.40;0.40;;;5.30;99.90;;;;;;5034496;28;20440;-68
2022/02/04 06:38:47;;;;;;;0.40;0.40;;;5.30;99.90;;;;;;5034208;28;20201;-67
2022/02/04 06:41:13;;;;;;;0.40;0.40;;;5.10;99.90;;;;;;5034685;28;20572;-67
2022/02/04 06:43:38;;;;;;;0.40;0.40;;;5.00;99.90;;;;;;5034473;28;20173;-67
2022/02/04 06:46:05;;;;;;;0.40;0.40;;;5.10;99.90;;;;;;5034441;28;20194;-67
2022/02/04 06:48:30;;;;;;;0.32;0.32;;;5.20;99.90;;;;;;5034146;28;20171;-67
2022/02/04 06:50:56;;;;;;;0.37;0.37;;;5.20;99.90;;;;;;5034307;28;20205;-68
2022/02/04 06:53:22;;;;;;;0.40;0.40;;;5.30;99.90;;;;;;5034514;28;20178;-67
2022/02/04 06:55:47;;;;;;;0.40;0.40;;;5.00;99.90;;;;;;5034247;28;20194;-67
2022/02/04 06:58:13;;;;;;;0.40;0.40;;;5.00;99.90;;;;;;5034211;28;20264;-67
2022/02/04 07:00:39;;;;;;;0.33;0.33;;;5.10;99.90;;;;;;5034307;28;20280;-68
2022/02/04 07:03:06;;;;;;;0.32;0.32;;;5.10;99.90;;;;;;5033989;28;20664;-68
2022/02/04 07:05:39;;;;;;;0.40;0.40;;;5.10;99.90;;;;;;5034130;28;20274;-67
2022/02/04 07:08:19;;;;;;;0.30;0.30;;;5.10;99.90;;;;;;5034401;28;20237;-68
2022/02/04 07:13:20;;;;;;;0.30;0.30;;;5.30;99.90;;;;;;5034051;28;20668;-68
2022/02/04 07:16:09;;;;;;;0.30;0.30;;;5.40;99.90;;;;;;5033788;28;20182;-68
2022/02/04 07:21:15;;;;;;;0.40;0.40;;;5.60;99.90;;;;;;5033835;28;20232;-68
2022/02/04 07:23:41;;;;;;;0.30;0.30;;;5.70;99.90;;;;;;5033468;28;20170;-68
2022/02/04 07:26:07;;;;;;;0.30;0.30;;;5.60;99.90;;;;;;5033967;28;20167;-67
2022/02/04 07:28:33;;;;;;;0.30;0.30;;;5.50;99.90;;;;;;5033487;28;20167;-67
2022/02/04 07:31:00;;;;;;;0.40;0.40;;;5.00;99.90;;;;;;5033693;28;20167;-67
2022/02/04 07:33:39;;;;;;;0.30;0.30;;;5.00;99.90;;;;;;5033618;28;20248;-67
2022/02/04 07:40:53;;;;;;;0.40;0.40;;;4.80;99.90;;;;;;5033351;28;20691;-67
2022/02/04 07:41:38;;;;;;;0.40;0.40;;;4.90;99.90;;;;;;5033437;28;20633;-67
2022/02/04 07:44:04;;;;;;;0.40;0.40;;;5.00;99.90;;;;;;5033477;28;20221;-68
2022/02/04 07:46:30;;;;;;;0.40;0.40;;;5.10;99.90;;;;;;5033520;28;20485;-68
2022/02/04 07:48:56;;;;;;;0.30;0.30;;;5.10;99.90;;;;;;5033213;28;20178;-67
2022/02/04 07:51:27;;;;;;;0.30;0.30;;;5.10;99.90;;;;;;5033423;28;20401;-67
2022/02/04 07:53:53;;;;;;;0.40;0.40;;;5.30;99.90;;;;;;5033422;28;20183;-67
2022/02/04 07:56:22;;;;;;;0.30;0.30;;;5.40;99.90;;;;;;5033455;28;20185;-67
2022/02/04 07:58:56;;;;;;;0.40;0.40;;;5.40;99.90;;;;;;5033224;28;20202;-68
2022/02/04 08:01:29;;;;;;;0.30;0.30;;;5.50;99.90;;;;;;5033510;28;20620;-68
2022/02/04 08:04:09;;;;;;;0.30;0.30;;;5.60;99.90;;;;;;5033427;28;20543;-68
2022/02/04 08:06:40;;;;;;;0.40;0.40;;;5.70;99.90;;;;;;5033242;28;20190;-67
2022/02/04 08:11:53;;;;;;;0.30;0.30;;;5.70;99.80;;;;;;5033425;28;20175;-68
2022/02/04 08:17:07;;;;;;;0.40;0.40;;;5.70;99.70;;;;;;5033554;28;20179;-67
2022/02/04 08:35:15;;;;;;;0.30;0.30;;;5.30;99.90;;;;;;5035024;28;20285;-67
2022/02/04 08:56:06;;;;;;;0.30;0.30;;;5.30;99.90;;;;;;5036514;28;20546;-68
2022/02/04 08:58:44;;;;;;;0.40;0.40;;;5.30;99.90;;;;;;5036389;28;20187;-67
2022/02/04 09:01:17;;;;;;;0.47;0.47;;;5.20;99.90;;;;;;5036449;28;20173;-67
2022/02/04 09:06:17;;;;;;;0.30;0.30;;;4.90;99.90;;;;;;5036479;28;20198;-68
2022/02/04 09:08:51;;;;;;;0.30;0.30;;;5.10;99.90;;;;;;5034846;28;20187;-67
2022/02/04 09:11:37;;;;;;;0.40;0.40;;;5.30;99.90;;;;;;5036358;28;20253;-68
2022/02/04 09:17:13;;;;;;;0.40;0.40;;;5.60;99.30;;;;;;5036173;28;20551;-67
2022/02/04 09:20:03;;;;;;;0.30;0.30;;;5.50;99.20;;;;;;5035910;28;20198;-68
2022/02/04 09:24:53;;;;;;;0.30;0.30;;;4.90;99.90;;;;;;5035839;28;20337;-68
2022/02/04 09:27:19;;;;;;;0.30;0.30;;;5.00;99.90;;;;;;5035973;28;20194;-68
2022/02/04 09:29:45;;;;;;;0.30;0.30;;;5.10;99.90;;;;;;5034400;28;20182;-67
2022/02/04 09:32:10;;;;;;;0.40;0.40;;;5.50;99.90;;;;;;5035887;28;20460;-68
2022/02/04 09:34:36;;;;;;;0.30;0.30;;;5.70;99.60;;;;;;5035750;28;20459;-67
2022/02/04 09:37:02;;;;;;;0.30;0.30;;;5.70;98.90;;;;;;5034418;28;20180;-67
2022/02/04 09:39:27;;;;;;;1.38;1.30;;;5.80;98.70;;;;;;5035415;28;20648;-67
2022/02/04 09:41:55;;;;;;;0.40;0.40;;;5.70;98.30;;;;;;5034424;28;20178;-67
2022/02/04 09:44:20;;;;;;;0.40;0.40;;;5.70;98.40;;;;;;5035469;28;20599;-67
2022/02/04 09:46:46;;;;;;;0.40;0.40;;;5.70;98.50;;;;;;5035405;28;20228;-67
2022/02/04 09:49:19;;;;;;;0.30;0.30;;;5.60;98.20;;;;;;5035395;28;20167;-68
2022/02/04 10:19:38;;;;;;;0.40;0.40;;;6.10;96.40;;;;;;5034695;28;20648;-67
2022/02/04 10:22:05;;;;;;;0.30;0.30;;;6.40;96.20;;;;;;5035217;28;20175;-67
2022/02/04 10:24:32;;;;;;;0.30;0.30;;;6.80;95.50;;;;;;5034756;28;20186;-67
2022/02/04 10:27:11;;;;;;;0.30;0.30;;;6.80;94.90;;;;;;5034698;28;20182;-67
2022/02/04 10:29:42;;;;;;;0.30;0.30;;;7.00;94.70;;;;;;5034571;28;20176;-68
2022/02/04 10:32:08;;;;;;;0.40;0.40;;;7.00;94.60;;;;;;5034863;28;20171;-67
2022/02/04 10:34:35;;;;;;;3.20;1.58;;;7.00;94.70;;;;;;5034352;28;20232;-68
2022/02/04 10:37:05;;;;;;;0.40;0.40;;;7.00;94.50;;;;;;5034556;28;20171;-67
2022/02/04 10:45:50;;;;;;;0.40;0.40;;;6.60;94.70;;;;;;5034758;28;20236;-68
2022/02/04 10:58:43;;;;;;;0.40;0.40;;;7.00;94.60;;;;;;5033618;28;20256;-68
2022/02/04 11:01:15;;;;;;;0.40;0.40;;;6.90;94.50;;;;;;5034401;28;20159;-68
2022/02/04 11:03:49;;;;;;;0.40;0.40;;;6.70;94.40;;;;;;5034146;28;20241;-67
2022/02/04 11:36:21;;;;;;;0.40;0.40;;;6.80;95.20;;;;;;5033602;28;20629;-68
2022/02/04 11:54:30;;;;;;;0.40;0.40;;;6.60;95.30;;;;;;5033471;28;20662;-68
2022/02/04 11:56:56;;;;;;;0.40;0.40;;;6.60;95.10;;;;;;5033596;28;20253;-67
2022/02/04 11:59:34;;;;;;;0.30;0.30;;;6.60;95.00;;;;;;5031835;28;20293;-68
2022/02/04 12:02:00;;;;;;;0.40;0.40;;;6.70;94.60;;;;;;5033381;28;20203;-67
2022/02/04 12:04:26;;;;;;;0.40;0.40;;;6.50;94.60;;;;;;5033294;28;20199;-68
2022/02/04 12:06:54;;;;;;;0.40;0.40;;;6.50;94.60;;;;;;5033336;28;20167;-68
2022/02/04 12:09:36;;;;;;;0.35;0.35;;;6.50;94.70;;;;;;5034262;28;20413;-68
2022/02/04 12:12:02;;;;;;;0.40;0.40;;;6.50;94.70;;;;;;5037325;28;20166;-68
2022/02/04 12:14:32;;;;;;;0.40;0.40;;;6.20;94.60;;;;;;5037197;28;20201;-68
2022/02/04 12:17:10;;;;;;;0.40;0.40;;;6.10;95.10;;;;;;5037154;28;20262;-67
2022/02/04 12:19:39;;;;;;;0.30;0.30;;;6.00;95.10;;;;;;5036944;28;20659;-68
2022/02/04 12:22:07;;;;;;;0.30;0.30;;;6.30;95.00;;;;;;5035836;28;20645;-68
2022/02/04 12:24:36;;;;;;;0.40;0.40;;;6.20;94.70;;;;;;5036982;28;20300;-68
2022/02/04 12:27:48;;;;;;;0.40;0.40;;;6.10;94.90;;;;;;5037069;28;20171;-68
2022/02/04 12:30:32;;;;;;;0.40;0.40;;;6.00;95.20;;;;;;5035786;28;20188;-67
2022/02/04 12:33:00;;;;;;;0.40;0.40;;;5.90;95.50;;;;;;5036989;28;20189;-67
2022/02/04 12:35:28;;;;;;;0.38;0.38;;;6.10;95.40;;;;;;5036924;28;20664;-68
2022/02/04 12:37:54;;;;;;;0.40;0.40;;;6.10;95.40;;;;;;5037318;28;20175;-68
2022/02/04 12:40:21;;;;;;;0.40;0.40;;;6.20;95.30;;;;;;5035202;28;20209;-68
2022/02/04 12:42:47;;;;;;;0.40;0.40;;;6.20;95.30;;;;;;5036638;28;20177;-68
2022/02/04 12:45:14;;;;;;;0.30;0.30;;;6.40;95.10;;;;;;5036557;28;20556;-68
2022/02/04 12:47:41;;;;;;;0.40;0.40;;;6.30;95.00;;;;;;5036946;28;20969;-68
2022/02/04 12:50:08;;;;;;;0.40;0.40;;;6.30;95.20;;;;;;5036546;28;20171;-67
2022/02/04 12:52:47;;;;;;;0.30;0.30;;;6.20;95.30;;;;;;5036676;28;20260;-68
2022/02/04 12:55:23;;;;;;;0.40;0.40;;;6.20;95.40;;;;;;5036639;28;20567;-68
2022/02/04 13:03:20;;;;;;;0.40;0.40;;;6.00;96.10;;;;;;5036527;28;20647;-67
2022/02/04 13:08:46;;;;;;;0.40;0.40;;;6.00;96.00;;;;;;5036524;28;20305;-68
2022/02/04 13:11:18;;;;;;;0.35;0.35;;;5.90;96.30;;;;;;5036389;28;20261;-67
2022/02/04 13:13:49;;;;;;;0.40;0.40;;;6.00;96.40;;;;;;5036118;28;20178;-68
2022/02/04 13:16:22;;;;;;;0.40;0.40;;;6.20;96.30;;;;;;5036221;28;20183;-68
2022/02/04 13:18:49;;;;;;;0.35;0.35;;;6.20;96.10;;;;;;5035870;28;20277;-67
2022/02/04 13:21:15;;;;;;;0.40;0.40;;;6.40;96.10;;;;;;5035627;28;20214;-68
2022/02/04 13:23:42;;;;;;;0.40;0.40;;;6.50;95.90;;;;;;5034772;28;20628;-68
2022/02/04 13:26:07;;;;;;;0.40;0.40;;;6.50;95.50;;;;;;5035821;28;20642;-68
2022/02/04 13:28:41;;;;;;;0.50;0.50;;;6.40;95.50;;;;;;5035630;28;20254;-68
2022/02/04 13:31:11;;;;;;;0.38;0.38;;;6.50;95.40;;;;;;5036031;28;20225;-68
2022/02/04 13:33:40;;;;;;;0.30;0.30;;;6.80;95.20;;;;;;5035513;28;20198;-67
2022/02/04 13:36:20;;;;;;;0.40;0.40;;;7.10;94.70;;;;;;5035751;28;20258;-68
2022/02/04 13:41:33;;;;;;;0.40;0.40;;;7.10;93.40;;;;;;5035565;28;20521;-67
2022/02/04 13:46:53;;;;;;;0.40;0.40;;;6.60;94.10;;;;;;5035500;28;20225;-68
2022/02/04 13:52:21;;;;;;;0.40;0.40;;;6.50;94.30;;;;;;5035875;28;20185;-68
2022/02/04 14:03:30;;;;;;;0.30;0.30;;;6.90;94.40;;;;;;5035366;28;20206;-68
2022/02/04 14:06:04;;;;;;;0.40;0.40;;;6.60;94.10;;;;;;5035161;28;20605;-68
2022/02/04 14:08:47;;;;;;;0.40;0.40;;;6.70;94.60;;;;;;5035186;28;20171;-67
2022/02/04 14:11:24;;;;;;;0.40;0.40;;;6.70;94.20;;;;;;5035214;28;20711;-67
2022/02/04 14:13:52;;;;;;;0.40;0.40;;;6.80;94.10;;;;;;5035115;28;20202;-67
2022/02/04 14:16:21;;;;;;;0.38;0.38;;;6.90;94.20;;;;;;5034888;28;20174;-67
2022/02/04 14:18:48;;;;;;;0.40;0.40;;;6.70;94.10;;;;;;5034711;28;20203;-67
2022/02/04 14:21:16;;;;;;;0.40;0.40;;;6.50;94.10;;;;;;5034885;28;20171;-68
2022/02/04 14:23:45;;;;;;;0.40;0.40;;;6.40;94.40;;;;;;5034891;28;20597;-68
2022/02/04 14:26:17;;;;;;;0.40;0.40;;;6.40;94.90;;;;;;5034816;28;20158;-67
2022/02/04 14:31:19;;;;;;;0.35;0.35;;;6.80;94.50;;;;;;5034516;28;20178;-67
2022/02/04 14:36:28;;;;;;;0.30;0.30;;;6.90;94.10;;;;;;5034604;28;20542;-67
2022/02/04 14:50:31;;;;;;;0.32;0.32;;;7.20;93.60;;;;;;5034360;28;20240;-68
2022/02/04 14:53:03;;;;;;;0.38;0.38;;;7.20;93.70;;;;;;5034243;28;20179;-67
2022/02/04 15:01:07;;;;;;;0.40;0.40;;;7.00;94.20;;;;;;5034719;28;20546;-68
2022/02/04 15:03:39;;;;;;;0.40;0.40;;;6.80;94.60;;;;;;5034278;28;20660;-68
2022/02/04 15:08:34;;;;;;;0.30;0.30;;;6.80;94.80;;;;;;5034001;28;20183;-68
2022/02/04 15:11:03;;;;;;;0.40;0.40;;;6.60;94.70;;;;;;5033998;28;20209;-67
2022/02/04 15:13:31;;;;;;;0.40;0.40;;;6.30;95.00;;;;;;5033881;28;20194;-67
2022/02/04 15:15:58;;;;;;;0.40;0.40;;;6.20;95.40;;;;;;5033878;28;20167;-67
2022/02/04 15:18:23;;;;;;;0.40;0.40;;;6.30;95.60;;;;;;5033795;28;20257;-67
2022/02/04 15:20:53;;;;;;;0.40;0.40;;;6.40;95.40;;;;;;5033948;28;20676;-67
2022/02/04 15:23:18;;;;;;;0.40;0.40;;;6.30;95.60;;;;;;5032983;28;20676;-67
2022/02/04 15:25:45;;;;;;;0.40;0.40;;;6.50;95.50;;;;;;5033635;28;20282;-67
2022/02/04 15:30:43;;;;;;;0.30;0.30;;;6.90;94.90;;;;;;5033759;28;20232;-67
2022/02/04 15:33:10;;;;;;;0.30;0.30;;;7.00;94.90;;;;;;5033719;28;20777;-67
2022/02/04 15:35:36;;;;;;;0.40;0.40;;;7.00;94.40;;;;;;5034029;28;20192;-68
2022/02/04 15:38:02;;;;;;;0.40;0.40;;;7.10;94.40;;;;;;5033794;28;20305;-68
2022/02/04 15:40:28;;;;;;;0.30;0.30;;;7.00;94.40;;;;;;5033390;28;20214;-68
2022/02/04 15:42:57;;;;;;;0.33;0.33;;;6.90;94.60;;;;;;5033497;28;20533;-67
2022/02/04 15:45:59;;;;;;;0.30;0.30;;;7.00;94.60;;;;;;5033372;28;20190;-68
2022/02/04 15:53:52;;;;;;;0.30;0.30;;;7.00;94.50;;;;;;5033499;28;20579;-68
2022/02/04 15:56:30;;;;;;;0.30;0.30;;;7.10;94.50;;;;;;5033326;28;20278;-67
2022/02/04 16:04:23;;;;;;;0.40;0.40;;;6.80;95.20;;;;;;5033060;28;20565;-67
2022/02/04 16:06:49;;;;;;;0.30;0.30;;;6.80;94.90;;;;;;5033258;28;20668;-68
2022/02/04 16:09:16;;;;;;;0.40;0.40;;;6.70;95.00;;;;;;5033141;28;20266;-67
2022/02/04 16:16:44;;;;;;;0.40;0.40;;;6.60;95.40;;;;;;5033178;28;20546;-67
2022/02/04 16:19:27;;;;;;;1.50;1.50;;;6.70;95.40;;;;;;5033054;28;20452;-68
2022/02/04 16:24:52;;;;;;;0.30;0.30;;;6.60;95.60;;;;;;5033320;28;20194;-67
2022/02/04 16:29:59;;;;;;;0.30;0.30;;;6.50;95.70;;;;;;5033161;28;20205;-68
2022/02/04 16:32:28;;;;;;;0.30;0.30;;;6.50;95.80;;;;;;5032960;28;20182;-67
2022/02/04 16:34:55;;;;;;;0.30;0.30;;;6.50;96.00;;;;;;5033219;28;20209;-68
2022/02/04 16:37:32;;;;;;;0.40;0.40;;;6.40;96.20;;;;;;5033153;28;20178;-67
2022/02/04 16:39:59;;;;;;;0.30;0.30;;;6.20;96.30;;;;;;5032705;28;20288;-68
2022/02/04 16:42:28;;;;;;;0.30;0.30;;;6.20;96.50;;;;;;5033227;28;20635;-68
2022/02/04 16:44:54;;;;;;;0.30;0.30;;;6.30;96.70;;;;;;5033088;28;20187;-68
2022/02/04 16:47:19;;;;;;;0.40;0.40;;;6.30;96.70;;;;;;5033053;28;20167;-67
2022/02/04 16:49:45;;;;;;;0.40;0.40;;;6.20;96.70;;;;;;5031438;28;20182;-67
2022/02/04 16:52:11;;;;;;;0.30;0.30;;;6.30;96.90;;;;;;5033152;28;20178;-67
2022/02/04 16:54:38;;;;;;;0.30;0.30;;;6.20;96.90;;;;;;5033136;28;20568;-68
2022/02/04 16:57:04;;;;;;;0.40;0.40;;;6.30;96.90;;;;;;5036488;28;20189;-67
2022/02/04 16:59:31;;;;;;;0.32;0.32;;;6.30;96.90;;;;;;5035004;28;20692;-68
2022/02/04 17:01:57;;;;;;;0.40;0.40;;;6.30;96.90;;;;;;5036617;28;20258;-68
2022/02/04 17:04:24;;;;;;;1.75;1.75;;;6.20;97.00;;;;;;5036389;28;20193;-68
2022/02/04 17:06:58;;;;;;;0.30;0.30;;;6.20;97.10;;;;;;5036300;28;20254;-67
2022/02/04 17:09:29;;;;;;;0.40;0.40;;;6.20;97.20;;;;;;5036217;28;20513;-67
2022/02/04 17:12:07;;;;;;;0.40;0.40;;;6.30;97.30;;;;;;5036473;28;20523;-67
2022/02/04 17:14:36;;;;;;;0.30;0.30;;;6.20;97.10;;;;;;5036071;28;20204;-67
2022/02/04 17:17:04;;;;;;;0.30;0.30;;;6.20;97.10;;;;;;5036072;28;20180;-67
2022/02/04 17:19:37;;;;;;;0.40;0.40;;;6.10;97.20;;;;;;5035861;28;20198;-67
2022/02/04 17:22:05;;;;;;;0.30;0.30;;;6.00;97.40;;;;;;5036533;28;20529;-67
2022/02/04 17:24:31;;;;;;;0.40;0.40;;;5.90;97.70;;;;;;5035907;28;20206;-67
2022/02/04 17:26:58;;;;;;;0.30;0.30;;;5.80;97.80;;;;;;5036235;28;20163;-67
2022/02/04 17:29:27;;;;;;;0.40;0.40;;;5.80;98.00;;;;;;5035824;28;20175;-67
2022/02/04 17:31:53;;;;;;;0.40;0.40;;;5.80;98.20;;;;;;5036110;28;20178;-67
2022/02/04 17:34:19;;;;;;;0.40;0.40;;;5.90;98.30;;;;;;5035660;28;20214;-67
2022/02/04 17:36:45;;;;;;;0.37;0.37;;;6.00;98.20;;;;;;5035791;28;20532;-67
2022/02/04 17:39:20;;;;;;;0.40;0.40;;;6.00;98.10;;;;;;5035465;28;20198;-67
2022/02/04 17:41:48;;;;;;;0.50;0.50;;;6.10;97.90;;;;;;5035823;28;20163;-67
2022/02/04 17:44:16;;;;;;;0.40;0.40;;;6.20;97.90;;;;;;5035601;28;20245;-67
2022/02/04 17:46:43;;;;;;;0.40;0.40;;;6.20;97.80;;;;;;5035538;28;20242;-67
2022/02/04 17:49:36;;;;;;;0.38;0.38;;;6.20;97.80;;;;;;5035669;28;20178;-67
2022/02/04 17:52:18;;;;;;;0.30;0.30;;;6.10;97.80;;;;;;5035394;28;20588;-67
2022/02/04 17:54:54;;;;;;;0.30;0.30;;;6.10;97.90;;;;;;5035521;28;20190;-67
2022/02/04 17:57:34;;;;;;;0.40;0.40;;;6.10;97.80;;;;;;5035390;28;20224;-67
2022/02/04 18:00:18;;;;;;;0.40;0.40;;;6.20;97.70;;;;;;5035269;28;20226;-67
2022/02/04 18:02:58;;;;;;;0.40;0.40;;;6.20;97.90;;;;;;5035498;28;20169;-67
2022/02/04 18:07:53;;;;;;;0.80;0.65;;;6.30;97.60;;;;;;5033933;28;20171;-67
2022/02/04 18:10:19;;;;;;;0.35;0.35;;;6.40;97.40;;;;;;5035052;28;20171;-67
2022/02/04 18:12:45;;;;;;;0.30;0.30;;;6.40;97.30;;;;;;5035196;28;20245;-67
2022/02/04 18:15:11;;;;;;;0.30;0.30;;;6.30;97.30;;;;;;5033733;28;20530;-68
2022/02/04 18:17:36;;;;;;;0.40;0.40;;;6.30;97.40;;;;;;5035042;28;20410;-67
2022/02/04 18:20:04;;;;;;;0.40;0.40;;;6.20;97.30;;;;;;5033334;28;20975;-67
2022/02/04 18:22:30;;;;;;;0.32;0.32;;;6.20;97.60;;;;;;5034944;28;20596;-68
2022/02/04 18:24:57;;;;;;;0.30;0.30;;;6.30;97.70;;;;;;5034791;28;20290;-67
2022/02/04 18:27:22;;;;;;;0.30;0.30;;;6.30;97.50;;;;;;5034793;28;20186;-67
2022/02/04 18:29:53;;;;;;;0.40;0.40;;;6.30;97.50;;;;;;5034710;28;20187;-67
2022/02/04 18:32:22;;;;;;;0.30;0.30;;;6.20;97.40;;;;;;5034900;28;20213;-67
2022/02/04 18:34:48;;;;;;;0.30;0.30;;;6.10;97.60;;;;;;5034499;28;20214;-67
2022/02/04 18:37:15;;;;;;;0.40;0.40;;;6.10;97.80;;;;;;5034704;28;20221;-67
2022/02/04 18:42:30;;;;;;;0.40;0.40;;;6.40;97.60;;;;;;5034672;28;20576;-67
2022/02/04 18:45:09;;;;;;;0.30;0.30;;;6.50;97.50;;;;;;5034367;28;20274;-67
2022/02/04 18:47:49;;;;;;;0.40;0.40;;;6.30;97.30;;;;;;5034629;28;20163;-67
2022/02/04 18:50:31;;;;;;;0.40;0.40;;;6.20;97.70;;;;;;5034249;28;20167;-67
2022/02/04 18:53:12;;;;;;;0.40;0.40;;;6.30;98.10;;;;;;5034619;28;20166;-67
2022/02/04 18:56:00;;;;;;;0.40;0.40;;;6.30;97.80;;;;;;5034777;28;20194;-67
2022/02/04 18:58:29;;;;;;;0.40;0.40;;;6.20;98.20;;;;;;5034215;28;20647;-68
2022/02/04 19:00:56;;;;;;;0.40;0.40;;;6.30;98.50;;;;;;5034314;28;20185;-68
2022/02/04 19:03:29;;;;;;;0.40;0.40;;;6.30;98.20;;;;;;5034335;28;20175;-67
2022/02/04 19:08:32;;;;;;;0.40;0.40;;;6.40;98.20;;;;;;5034113;28;20177;-67
2022/02/04 19:10:58;;;;;;;0.40;0.40;;;6.10;98.30;;;;;;5034098;28;20163;-67
2022/02/04 19:13:35;;;;;;;0.30;0.30;;;6.00;99.20;;;;;;5034107;28;20169;-67
2022/02/04 19:16:24;;;;;;;0.40;0.40;;;6.20;99.30;;;;;;5033952;28;20632;-67
2022/02/04 19:21:37;;;;;;;1.05;1.05;;;6.50;98.90;;;;;;5033980;28;20752;-68
2022/02/04 19:24:03;;;;;;;0.40;0.40;;;6.50;98.90;;;;;;5033969;28;20282;-67
2022/02/04 19:26:29;;;;;;;0.38;0.38;;;6.60;98.80;;;;;;5034036;28;20588;-67
2022/02/04 19:28:54;;;;;;;0.40;0.40;;;6.50;99.00;;;;;;5033676;28;20174;-67
2022/02/04 19:31:21;;;;;;;0.40;0.40;;;6.40;99.30;;;;;;5033778;28;20225;-67
2022/02/04 19:33:47;;;;;;;0.30;0.30;;;6.30;99.50;;;;;;5033603;28;20196;-67
2022/02/04 19:36:16;;;;;;;0.40;0.40;;;6.40;99.90;;;;;;5033595;28;20170;-67
2022/02/04 19:38:42;;;;;;;0.38;0.38;;;6.30;99.70;;;;;;5033462;28;20190;-67
2022/02/04 19:41:13;;;;;;;0.38;0.38;;;6.10;99.90;;;;;;5033696;28;20193;-67